This is the latest recevied weather packets stored in our database for station/object VE2JOS. If no packets are shown the sender has not sent any weather packets the latest 10 day(s).
| Time | Temp. | Humidity | Pressure | Rain* | Wind** | Luminosity | Snow |
|---|---|---|---|---|---|---|---|
| 1777788339 | 2.78° C | 98% | - | 0 mm | - | - | - |
| 1777786519 | 3.33° C | 96% | - | 0 mm | - | - | - |
| 1777781719 | 5° C | 85% | - | 0 mm | - | - | - |
| 1777781119 | 5.56° C | 83% | - | 0 mm | - | - | - |
| 1777778719 | 6.67° C | 82% | - | 0 mm | - | - | - |
| 1777764919 | 7.22° C | 84% | - | 0.51 mm | - | - | - |
| 1777764319 | 7.22° C | 86% | - | 0.51 mm | - | - | - |
| 1777752319 | 12.22° C | 53% | - | 0 mm | - | - | - |
| 1777751719 | 12.78° C | 52% | - | 0 mm | - | - | - |
| 1777749319 | 12.22° C | 54% | - | 0 mm | - | - | - |
| 1777748738 | 12.22° C | 53% | - | 0 mm | - | - | - |
| 1777748139 | 12.22° C | 55% | - | 0 mm | - | - | - |
| 1777746959 | 13.33° C | 53% | - | 0 mm | - | - | - |
| 1777745119 | 11.67° C | 54% | - | 0 mm | - | - | - |
| 1777742119 | 11.11° C | 57% | - | 0 mm | - | - | - |
| 1777739119 | 10.56° C | 59% | - | 0 mm | - | - | - |
| 1777738518 | 11.11° C | 58% | - | 0 mm | - | - | - |
| 1777730739 | 7.78° C | 64% | - | 0 mm | - | - | - |
| 1777728938 | 6.67° C | 68% | - | 0 mm | - | - | - |
| 1777727738 | 6.11° C | 71% | - | 0 mm | - | - | - |
| 1777723538 | 6.11° C | 70% | - | 0 mm | - | - | - |
| 1777722939 | 6.11° C | 71% | - | 0 mm | - | - | - |
| 1777721158 | 5° C | 76% | - | 0 mm | - | - | - |
| 1777717539 | 4.44° C | 64% | - | 0 mm | - | - | - |
| 1777716938 | 4.44° C | 64% | - | 0 mm | - | - | - |
* Rain latest hour (hover to see other rain measurements)
** Current wind speed in m/s (hover to see current wind gust speed)